RLSO2: Arkansas River, Ralston, OK

                                SHEF ID:       RLSO2     Arkansas River at Ralston, OK
STATION TYPE:
Regulating: Stage = 16.00, Flow = 78729

PRECIP STAGE STAGE(2) RIV-FLOW AIR-TEMP BAT-LOAD
in ft ft cfs F volt
Ccp-Rev Ccp-Rev Ccp-Rev Ccp-Rev Ccp-Rev Ccp-Rev
(America/Chicago)
03/24 00:00 0.00 3.47 3.50 554 55.58 12.77
03/24 01:00 0.00 3.47 3.50 554 55.58 12.76
03/24 02:00 0.00 3.47 3.50 554 55.40 12.76
03/24 03:00 0.00 3.46 3.50 546 55.22 12.75
03/24 04:00 0.00 3.47 3.50 554 54.68 12.75
03/24 05:00 0.00 3.47 3.50 554 54.50 12.74
03/24 06:00 0.00 3.47 3.50 554 54.32 12.73
03/24 07:00 0.00 3.47 3.50 554 55.94 12.73
03/24 08:00 0.00 3.47 3.50 554 55.94 12.73
03/24 09:00 0.00 3.46 3.45 546 58.10 12.73
03/24 10:00 0.00 3.37 3.45 478 60.62 12.93
03/24 11:00 0.00 3.36 3.43 471 62.78 13.11
03/24 12:00 0.00 3.34 3.44 457 65.30 13.16
03/24 13:00 0.00 3.38 3.44 486 68.18 13.16
03/24 14:00 0.00 3.38 3.43 486 71.42 13.23
03/24 15:00 0.00 3.40 3.44 500 74.30 13.19
03/24 16:00 0.00 3.39 3.44 493 75.20 13.15
03/24 17:00 0.00 3.38 3.43 486 75.38 12.91
03/24 18:00 0.00 3.38 3.43 486 74.66 12.86
03/24 19:00 0.00 3.38 3.46 486 72.32 12.84
03/24 20:00 0.00 3.43 3.46 523 68.90 12.82
03/24 21:00 0.00 3.42 3.45 515 65.84 12.80
03/24 22:00 0.00 3.39 3.46 493 64.04 12.79
03/24 23:00 0.00 3.43 3.46 523 63.50 12.77
Data processed at Wed 25Mar2026 04:21 GMT

NOTICE: If you are parsing this page

Please convert to using our Data API. Starting early 2026 we will be migrating to: https://water.usace.army.mil with modern pages rendered in JavaScript. When this migration completes you will no longer be able to scrape this page! CWMSDataAPI (CDA)

Timeseries IDs (TSIDs)

TSIDs used from left to right in the data table
RALS.Precip-Inc.Total.1Hour.1Hour.Ccp-Rev
RALS.Stage.Inst.1Hour.0.Ccp-Rev
RALS.Stage-Alt.Inst.1Hour.0.Ccp-Rev
RALS.Flow.Inst.1Hour.0.Ccp-Rev
RALS.Temp-Air.Inst.1Hour.0.Ccp-Rev
RALS.Volt-Battery Load.Inst.1Hour.0.Ccp-Rev

                            

All information presented herein is the property of the government of the United States of America and may be revised or deleted at any time without prior notice. Dissemination of this information without the expressed written consent of the Public Affairs Office, Tulsa District U.S. Army Corps of Engineers is strictly prohibited. These data are gathered electronically and, as presented, have NOT undergone any form of quality control. These data are NOT guaranteed to be valid or correct.